»·PEaware :: UAL576 KSLC-KSNA

UAL576 :: KSLC-KSNA

FLIGHT INFORMATION

Flight Status: Arrived
Operator:
United Airlines
More flights by this operator :: More flights under this callsign
Pilot: Anonymous 8274 (8274)
Aircraft: BOEING 737-200
(B732)
More flights by this aircraft type
Origin: KSLC Salt Lake City Intl
United States
Destination: KSNA John Wayne-Orange Co
United States
More flights between these airports :: More routes between these airports
Route: FFU9 BCE J11 CORKR J76 LAS HEC KAYOH7
File this flight plan on PilotEdge
Remarks:
Altitude:
(Current/Filed)
30,000ft
Speed:
(Current/Filed)
460kts
Departed: 09-Jul-18 06:56 PM
Arrived: 09-Jul-18 08:38 PM
Distance/Time
Traveled:
511nm/1:42
Distance/Time
To Go:
Arrived

Flight Plot

Page will automatically refresh every two minutes.

Flight plan parsing failed; only flown route is shown


Map Options




Map Legend


Flown Route
Filed Route
Departure Airport
Arrival Airport
Navaid (VOR, NDB)
Fix

Horizontal Profiles

Position Reports

Time Latitude Longitude Heading Altitude Ground
Speed
09-Jul-18 18:30 40.788039 -111.985201 72 4236ft 0kts
09-Jul-18 18:31 40.788039 -111.985201 72 4236ft 0kts
09-Jul-18 18:32 40.788039 -111.985201 72 4236ft 0kts
09-Jul-18 18:33 40.788039 -111.985201 72 4236ft 0kts
09-Jul-18 18:34 40.788039 -111.985201 72 4236ft 0kts
09-Jul-18 18:35 40.788039 -111.985201 72 4236ft 0kts
09-Jul-18 18:36 40.788039 -111.985201 72 4236ft 0kts
09-Jul-18 18:37 40.788039 -111.985201 72 4236ft 0kts
09-Jul-18 18:38 40.787957 -111.985533 72 4236ft 2kts
09-Jul-18 18:39 40.787732 -111.986152 26 4236ft 2kts
09-Jul-18 18:40 40.787502 -111.986163 339 4236ft 0kts
09-Jul-18 18:41 40.787563 -111.986193 339 4236ft 3kts
09-Jul-18 18:42 40.789785 -111.985964 56 4236ft 9kts
09-Jul-18 18:43 40.789884 -111.982210 81 4236ft 12kts
09-Jul-18 18:44 40.790223 -111.978666 86 4236ft 0kts
09-Jul-18 18:45 40.790223 -111.978666 86 4236ft 0kts
09-Jul-18 18:46 40.790223 -111.978666 86 4236ft 0kts
09-Jul-18 18:47 40.790223 -111.978666 86 4236ft 0kts
09-Jul-18 18:48 40.790223 -111.978666 86 4236ft 0kts
09-Jul-18 18:49 40.790223 -111.978666 86 4236ft 0kts
09-Jul-18 18:50 40.790283 -111.977671 80 4236ft 11kts
09-Jul-18 18:51 40.796127 -111.977791 354 4236ft 34kts
09-Jul-18 18:52 40.805289 -111.978395 353 4236ft 30kts
09-Jul-18 18:53 40.807164 -111.978480 35 4236ft 0kts
09-Jul-18 18:54 40.807164 -111.978480 35 4236ft 0kts
09-Jul-18 18:55 40.807164 -111.978480 35 4236ft 0kts
09-Jul-18 18:56 40.806976 -111.976887 174 4236ft 0kts
09-Jul-18 18:57 40.805518 -111.976716 174 4236ft 50kts
09-Jul-18 18:58 40.769568 -111.972441 171 4926ft 163kts
09-Jul-18 18:59 40.721848 -111.963961 171 6073ft 207kts
09-Jul-18 19:00 40.656919 -111.953595 173 7953ft 256kts
09-Jul-18 19:01 40.582424 -111.942437 173 10299ft 279kts
09-Jul-18 19:02 40.498807 -111.927097 172 11921ft 321kts
09-Jul-18 19:03 40.405825 -111.911307 173 13844ft 342kts
09-Jul-18 19:04 40.310323 -111.895475 173 15951ft 350kts
09-Jul-18 19:05 40.212838 -111.879603 172 17845ft 358kts
09-Jul-18 19:06 40.113610 -111.866085 186 19591ft 364kts
09-Jul-18 19:07 40.016653 -111.906697 203 21195ft 370kts
09-Jul-18 19:08 39.924617 -111.967392 205 22658ft 375kts
09-Jul-18 19:09 39.826514 -112.000556 178 23971ft 376kts
09-Jul-18 19:10 39.721733 -112.002943 182 25198ft 381kts
09-Jul-18 19:11 39.615807 -112.012951 184 26335ft 385kts
09-Jul-18 19:12 39.509526 -112.026408 184 26890ft 387kts
09-Jul-18 19:13 39.401309 -112.042506 186 27679ft 395kts
09-Jul-18 19:14 39.291886 -112.061628 186 28393ft 400kts
09-Jul-18 19:15 39.181025 -112.081012 186 29008ft 405kts
09-Jul-18 19:16 39.069355 -112.102166 188 29530ft 410kts
09-Jul-18 19:17 38.956875 -112.127265 188 29968ft 415kts
09-Jul-18 19:18 38.844609 -112.151750 186 30344ft 418kts
09-Jul-18 19:19 38.727836 -112.169472 185 30233ft 430kts
09-Jul-18 19:20 38.609183 -112.187354 185 30183ft 429kts
09-Jul-18 19:21 38.491570 -112.205145 185 30183ft 427kts
09-Jul-18 19:22 38.373885 -112.221882 183 30183ft 425kts
09-Jul-18 19:23 38.256104 -112.231467 182 30182ft 424kts
09-Jul-18 19:24 38.138834 -112.241009 182 30286ft 420kts
09-Jul-18 19:25 38.023258 -112.250431 182 30450ft 416kts
09-Jul-18 19:26 37.907709 -112.259898 182 30450ft 417kts
09-Jul-18 19:27 37.799255 -112.268576 182 30455ft 418kts
09-Jul-18 19:28 37.683299 -112.275936 182 30455ft 420kts
09-Jul-18 19:29 37.567541 -112.288630 191 30465ft 421kts
09-Jul-18 19:30 37.452321 -112.315778 183 30462ft 423kts
09-Jul-18 19:31 37.334818 -112.323422 182 30453ft 424kts
09-Jul-18 19:32 37.217908 -112.330961 182 30452ft 426kts
09-Jul-18 19:33 37.099869 -112.338592 182 30452ft 426kts
09-Jul-18 19:34 36.981637 -112.346246 182 30447ft 427kts
09-Jul-18 19:35 36.869265 -112.353577 182 30268ft 432kts
09-Jul-18 19:36 36.749336 -112.361417 182 30212ft 434kts
09-Jul-18 19:37 36.629299 -112.369283 182 30211ft 434kts
09-Jul-18 19:38 36.522820 -112.376301 182 30322ft 432kts
09-Jul-18 19:39 36.403124 -112.384137 182 30372ft 432kts
09-Jul-18 19:40 36.283411 -112.392024 182 30372ft 432kts
09-Jul-18 19:41 36.163549 -112.400388 188 30363ft 433kts
09-Jul-18 19:42 36.079895 -112.497629 256 30372ft 448kts
09-Jul-18 19:43 36.070594 -112.649880 266 30375ft 455kts
09-Jul-18 19:44 36.064256 -112.804732 265 30372ft 458kts
09-Jul-18 19:45 36.057925 -112.963064 265 30154ft 466kts
09-Jul-18 19:46 36.053692 -113.123394 265 30127ft 467kts
09-Jul-18 19:47 36.050350 -113.283311 266 30127ft 466kts
09-Jul-18 19:48 36.047137 -113.442680 266 30127ft 465kts
09-Jul-18 19:49 36.044022 -113.602400 266 30127ft 464kts
09-Jul-18 19:50 36.041175 -113.753295 265 30126ft 464kts
09-Jul-18 19:51 36.054903 -113.911875 277 30023ft 470kts
09-Jul-18 19:52 36.076381 -114.069676 276 29974ft 468kts
09-Jul-18 19:53 36.080906 -114.229149 268 29991ft 465kts
09-Jul-18 19:54 36.082023 -114.388513 266 29993ft 463kts
09-Jul-18 19:55 36.079595 -114.547789 266 29992ft 463kts
09-Jul-18 19:56 36.077324 -114.703111 266 29991ft 463kts
09-Jul-18 19:57 36.075111 -114.861310 266 29952ft 464kts
09-Jul-18 19:58 36.076566 -115.020832 268 29937ft 464kts
09-Jul-18 19:59 36.076628 -115.179350 256 29925ft 459kts
09-Jul-18 20:00 36.000332 -115.294239 212 29936ft 442kts
09-Jul-18 20:01 35.899482 -115.368504 208 29983ft 440kts
09-Jul-18 20:02 35.798120 -115.446348 215 29951ft 444kts
09-Jul-18 20:03 35.705583 -115.546578 219 29996ft 445kts
09-Jul-18 20:04 35.613641 -115.647567 219 29996ft 446kts
09-Jul-18 20:05 35.528104 -115.736599 217 29993ft 446kts
09-Jul-18 20:06 35.432808 -115.833769 217 29993ft 446kts
09-Jul-18 20:07 35.337795 -115.930565 217 29993ft 447kts
09-Jul-18 20:08 35.242475 -116.027574 217 29993ft 447kts
09-Jul-18 20:09 35.144790 -116.120650 215 29992ft 447kts
09-Jul-18 20:10 35.046689 -116.213628 217 29992ft 448kts
09-Jul-18 20:11 34.951431 -116.310165 217 29991ft 448kts
09-Jul-18 20:12 34.864944 -116.398265 217 28210ft 425kts
09-Jul-18 20:13 34.776764 -116.486433 222 25870ft 414kts
09-Jul-18 20:14 34.699535 -116.587515 221 23503ft 404kts
09-Jul-18 20:15 34.631815 -116.667457 222 21534ft 396kts
09-Jul-18 20:16 34.557971 -116.760586 224 19317ft 387kts
09-Jul-18 20:17 34.484316 -116.853992 224 17056ft 380kts
09-Jul-18 20:18 34.410869 -116.942906 219 14955ft 371kts
09-Jul-18 20:19 34.333516 -117.020481 219 13447ft 345kts
09-Jul-18 20:20 34.263347 -117.095871 222 13348ft 338kts
09-Jul-18 20:21 34.180037 -117.140057 185 13012ft 335kts
09-Jul-18 20:22 34.086378 -117.141094 179 11336ft 320kts
09-Jul-18 20:23 34.001183 -117.148528 185 11337ft 300kts
09-Jul-18 20:24 33.918292 -117.160716 188 11148ft 302kts
09-Jul-18 20:25 33.838913 -117.175971 191 11026ft 300kts
09-Jul-18 20:26 33.759427 -117.197210 219 10306ft 296kts
09-Jul-18 20:27 33.750065 -117.284919 294 8864ft 280kts
09-Jul-18 20:28 33.779310 -117.370763 291 7808ft 272kts
09-Jul-18 20:29 33.805380 -117.456441 291 6378ft 273kts
09-Jul-18 20:30 33.831875 -117.541259 291 5111ft 269kts
09-Jul-18 20:31 33.857967 -117.624043 292 4993ft 262kts
09-Jul-18 20:32 33.880086 -117.695583 279 4895ft 213kts
09-Jul-18 20:33 33.858503 -117.756600 225 3950ft 197kts
09-Jul-18 20:34 33.814124 -117.781534 204 3059ft 172kts
09-Jul-18 20:35 33.773859 -117.806159 211 2239ft 159kts
09-Jul-18 20:36 33.736764 -117.829859 207 1269ft 137kts
09-Jul-18 20:37 33.704275 -117.850630 207 589ft 132kts
09-Jul-18 20:38 33.673727 -117.870052 208 65ft 76kts
09-Jul-18 20:39 33.670647 -117.869349 40 65ft 21kts
09-Jul-18 20:40 33.674754 -117.866039 28 65ft 0kts
09-Jul-18 20:41 33.674754 -117.866039 28 65ft 0kts
09-Jul-18 20:42 33.674754 -117.866039 28 65ft 0kts
09-Jul-18 20:43 33.674754 -117.866039 28 65ft 0kts

Navigation Log

Ident Type
Flight plan parsing failed, navigation log unavailable